Time;durP1;ratioP1;P1;durP2;ratioP2;P2;SDS_P1;SDS_P2;PMS_P1;PMS_P2;Temp;Humidity;BMP_temperature;BMP_pressure;BME280_temperature;BME280_humidity;BME280_pressure;Samples;Min_cycle;Max_cycle;Signal;HPM_P1;HPM_P2
2023/08/21 00:01:02;;;;;;;4.50;4.10;;;30.50;49.90;;;;;;5066725;28;44634;-76
2023/08/21 00:03:29;;;;;;;4.38;4.00;;;30.50;49.80;;;;;;5066558;28;45413;-75
2023/08/21 00:05:57;;;;;;;4.43;4.03;;;30.50;50.00;;;;;;5066107;28;45373;-75
2023/08/21 00:08:24;;;;;;;4.10;3.80;;;30.50;50.00;;;;;;5068526;28;45390;-75
2023/08/21 00:10:51;;;;;;;4.75;4.35;;;30.50;50.00;;;;;;5069761;28;45214;-75
2023/08/21 00:13:19;;;;;;;4.95;3.83;;;30.40;50.00;;;;;;5069853;28;45257;-75
2023/08/21 00:15:45;;;;;;;5.38;4.35;;;30.40;50.00;;;;;;5069667;28;45363;-75
2023/08/21 00:18:12;;;;;;;4.28;3.97;;;30.40;50.00;;;;;;5069785;28;45333;-75
2023/08/21 00:20:41;;;;;;;4.38;4.03;;;30.40;50.10;;;;;;5069283;28;45262;-74
2023/08/21 00:23:09;;;;;;;4.20;3.90;;;30.40;50.00;;;;;;5070272;28;45583;-75
2023/08/21 00:25:36;;;;;;;4.03;3.72;;;30.30;50.00;;;;;;5068811;28;46429;-74
2023/08/21 00:28:03;;;;;;;4.30;3.90;;;30.30;50.00;;;;;;5069371;28;45246;-75
2023/08/21 00:30:30;;;;;;;3.83;3.53;;;30.30;50.00;;;;;;5069792;28;45273;-74
2023/08/21 00:32:57;;;;;;;4.55;4.18;;;30.30;50.00;;;;;;5069603;28;45253;-76
2023/08/21 00:35:24;;;;;;;4.47;4.07;;;30.30;50.10;;;;;;5069223;28;45371;-75
2023/08/21 00:37:51;;;;;;;4.28;3.88;;;30.30;50.10;;;;;;5069461;28;45347;-75
2023/08/21 00:40:19;;;;;;;4.50;4.10;;;30.20;50.60;;;;;;5069814;28;45379;-75
2023/08/21 00:42:46;;;;;;;4.20;3.80;;;30.20;50.00;;;;;;5069730;28;45325;-75
2023/08/21 00:45:13;;;;;;;4.18;3.88;;;30.20;50.00;;;;;;5069328;28;46375;-75
2023/08/21 00:47:40;;;;;;;4.30;4.00;;;30.20;50.20;;;;;;5068840;28;45352;-74
2023/08/21 00:50:08;;;;;;;4.07;3.78;;;30.20;50.20;;;;;;5069444;28;45436;-75
2023/08/21 00:52:35;;;;;;;4.40;4.03;;;30.20;50.20;;;;;;5068992;28;45270;-74
2023/08/21 00:55:02;;;;;;;4.25;3.95;;;30.10;50.20;;;;;;5069095;28;45208;-75
2023/08/21 00:57:30;;;;;;;4.85;4.05;;;30.10;50.20;;;;;;5069268;28;45194;-75
2023/08/21 00:59:57;;;;;;;4.20;3.85;;;30.10;50.20;;;;;;5069097;28;45329;-75
2023/08/21 01:02:24;;;;;;;4.55;4.20;;;30.10;50.20;;;;;;5069232;28;45355;-74
2023/08/21 01:04:51;;;;;;;4.55;4.15;;;30.10;50.30;;;;;;5068655;28;46427;-76
2023/08/21 01:07:18;;;;;;;4.38;3.90;;;30.10;50.30;;;;;;5068878;28;45280;-75
2023/08/21 01:09:46;;;;;;;3.92;3.63;;;30.00;50.20;;;;;;5068940;28;45316;-75
2023/08/21 01:12:16;;;;;;;4.57;4.18;;;30.00;50.30;;;;;;5068532;28;45287;-76
2023/08/21 01:14:51;;;;;;;4.13;3.72;;;30.00;50.30;;;;;;5067625;28;45634;-73
2023/08/21 01:17:18;;;;;;;4.32;4.03;;;30.00;50.30;;;;;;5067956;28;45242;-76
2023/08/21 01:19:45;;;;;;;5.43;4.15;;;30.00;50.30;;;;;;5067596;28;45472;-74
2023/08/21 01:22:12;;;;;;;3.85;3.60;;;30.00;50.90;;;;;;5068650;28;45411;-75
2023/08/21 01:24:40;;;;;;;4.20;3.83;;;29.90;50.20;;;;;;5068083;28;46919;-74
2023/08/21 01:27:07;;;;;;;4.03;3.72;;;29.90;50.30;;;;;;5068603;28;45228;-75
2023/08/21 01:29:34;;;;;;;4.60;4.20;;;29.90;50.30;;;;;;5068375;28;45242;-75
2023/08/21 01:32:06;;;;;;;4.15;3.85;;;29.90;50.40;;;;;;5068361;28;45444;-75
2023/08/21 01:34:34;;;;;;;4.47;4.07;;;29.90;50.40;;;;;;5067953;28;45316;-74
2023/08/21 01:37:01;;;;;;;4.45;4.05;;;29.90;50.30;;;;;;5068140;28;45468;-75
2023/08/21 01:39:27;;;;;;;3.92;3.63;;;29.90;50.30;;;;;;5068245;28;45271;-75
2023/08/21 01:41:56;;;;;;;5.15;3.90;;;29.90;50.30;;;;;;5068276;28;45400;-75
2023/08/21 01:44:24;;;;;;;4.72;4.32;;;29.80;50.30;;;;;;5067923;28;45527;-75
2023/08/21 01:46:50;;;;;;;4.45;4.05;;;29.80;50.30;;;;;;5068022;28;45394;-75
2023/08/21 01:49:19;;;;;;;4.30;4.00;;;29.80;50.30;;;;;;5068180;28;45306;-75
2023/08/21 01:51:45;;;;;;;4.63;4.22;;;29.80;50.30;;;;;;5067950;28;45353;-75
2023/08/21 01:54:12;;;;;;;3.67;3.38;;;29.80;51.00;;;;;;5067678;28;46264;-74
2023/08/21 01:56:39;;;;;;;4.75;4.07;;;29.70;50.30;;;;;;5067939;28;45266;-74
2023/08/21 01:59:07;;;;;;;4.28;3.90;;;29.70;50.40;;;;;;5067706;28;45308;-76
2023/08/21 02:01:34;;;;;;;4.72;4.32;;;29.70;50.40;;;;;;5067488;28;45424;-75
2023/08/21 02:04:01;;;;;;;4.05;3.75;;;29.70;50.40;;;;;;5066723;28;45325;-75
2023/08/21 02:06:28;;;;;;;3.92;3.63;;;29.70;50.40;;;;;;5067613;28;45197;-75
2023/08/21 02:08:55;;;;;;;4.38;3.97;;;29.70;50.40;;;;;;5067556;28;45553;-75
2023/08/21 02:11:21;;;;;;;4.43;4.03;;;29.60;50.50;;;;;;5067819;28;45367;-75
2023/08/21 02:13:48;;;;;;;4.30;4.00;;;29.60;50.50;;;;;;5067326;28;45297;-74
2023/08/21 02:16:16;;;;;;;5.13;4.13;;;29.60;50.50;;;;;;5067362;28;45333;-74
2023/08/21 02:18:43;;;;;;;4.50;4.10;;;29.60;50.50;;;;;;5067590;28;45151;-74
2023/08/21 02:21:10;;;;;;;4.20;3.90;;;29.60;50.50;;;;;;5067633;28;45404;-75
2023/08/21 02:23:37;;;;;;;4.90;4.43;;;29.60;50.50;;;;;;5067253;28;46406;-75
2023/08/21 02:26:04;;;;;;;4.10;3.80;;;29.60;50.50;;;;;;5067351;28;45506;-74
2023/08/21 02:28:30;;;;;;;5.05;4.15;;;29.60;50.70;;;;;;5067378;28;45302;-75
2023/08/21 02:30:57;;;;;;;5.43;3.97;;;29.60;50.70;;;;;;5067308;28;45203;-75
2023/08/21 02:33:25;;;;;;;4.40;4.00;;;29.50;50.60;;;;;;5067072;28;46393;-74
2023/08/21 02:35:52;;;;;;;4.28;3.97;;;29.50;50.70;;;;;;5067137;28;45321;-74
2023/08/21 02:38:19;;;;;;;4.57;4.22;;;29.50;50.60;;;;;;5067159;28;45396;-74
2023/08/21 02:40:47;;;;;;;4.45;4.05;;;29.50;50.70;;;;;;5067415;28;45372;-74
2023/08/21 02:43:14;;;;;;;4.10;3.70;;;29.50;50.70;;;;;;5066126;28;46388;-75
2023/08/21 02:45:41;;;;;;;4.07;3.72;;;29.50;50.70;;;;;;5066881;28;45575;-75
2023/08/21 02:48:07;;;;;;;4.50;4.10;;;29.50;50.60;;;;;;5067130;28;45300;-74
2023/08/21 02:50:36;;;;;;;4.45;4.05;;;29.40;50.60;;;;;;5067242;28;45414;-74
2023/08/21 02:53:03;;;;;;;4.40;4.10;;;29.50;50.60;;;;;;5066438;28;45492;-74
2023/08/21 02:55:29;;;;;;;4.43;4.07;;;29.40;50.60;;;;;;5066795;28;45200;-75
2023/08/21 02:57:56;;;;;;;4.45;4.05;;;29.40;50.80;;;;;;5067006;28;45374;-74
2023/08/21 03:00:23;;;;;;;4.22;3.90;;;29.40;50.80;;;;;;5066981;28;45464;-75
2023/08/21 03:02:50;;;;;;;4.07;3.78;;;29.30;50.70;;;;;;5066718;28;46351;-75
2023/08/21 03:05:17;;;;;;;4.28;3.88;;;29.30;50.80;;;;;;5066660;28;44642;-75
2023/08/21 03:07:45;;;;;;;4.10;3.80;;;29.30;50.70;;;;;;5066728;28;45386;-75
2023/08/21 03:10:12;;;;;;;4.50;4.18;;;29.30;50.90;;;;;;5066790;28;45368;-74
2023/08/21 03:12:39;;;;;;;4.50;4.05;;;29.30;50.90;;;;;;5066695;28;46422;-74
2023/08/21 03:15:07;;;;;;;4.38;3.97;;;29.30;51.00;;;;;;5066632;28;45246;-74
2023/08/21 03:17:33;;;;;;;4.55;4.15;;;29.30;50.90;;;;;;5066747;28;45174;-75
2023/08/21 03:20:00;;;;;;;4.00;3.70;;;29.20;50.90;;;;;;5066604;28;45475;-75
2023/08/21 03:22:27;;;;;;;4.22;3.75;;;29.20;51.00;;;;;;5066413;28;46345;-75
2023/08/21 03:24:55;;;;;;;4.72;4.22;;;29.20;50.90;;;;;;5063696;28;45484;-74
2023/08/21 03:27:23;;;;;;;4.38;3.97;;;29.20;51.00;;;;;;5066170;28;45263;-73
2023/08/21 03:29:49;;;;;;;4.25;3.95;;;29.20;51.00;;;;;;5065881;28;45306;-74
2023/08/21 03:32:16;;;;;;;4.13;3.78;;;29.20;50.90;;;;;;5066292;28;45448;-74
2023/08/21 03:34:43;;;;;;;5.22;3.70;;;29.20;51.00;;;;;;5066134;28;45421;-74
2023/08/21 03:37:10;;;;;;;5.85;4.18;;;29.20;51.00;;;;;;5066129;28;45380;-75
2023/08/21 03:39:37;;;;;;;4.53;4.13;;;29.10;50.90;;;;;;5066501;28;45235;-74
2023/08/21 03:42:06;;;;;;;4.03;3.72;;;29.10;51.10;;;;;;5066420;28;45362;-74
2023/08/21 03:44:33;;;;;;;4.80;4.40;;;29.10;51.10;;;;;;5069634;28;45383;-74
2023/08/21 03:47:00;;;;;;;4.18;3.88;;;29.10;51.20;;;;;;5069610;28;45386;-74
2023/08/21 03:49:27;;;;;;;4.13;3.83;;;29.10;51.10;;;;;;5070308;28;45370;-74
2023/08/21 03:51:53;;;;;;;4.68;4.25;;;29.10;51.20;;;;;;5069427;28;46460;-75
2023/08/21 03:54:20;;;;;;;4.57;4.18;;;29.10;51.10;;;;;;5069515;28;45732;-74
2023/08/21 03:56:47;;;;;;;4.50;4.10;;;29.10;51.20;;;;;;5069799;28;45460;-74
2023/08/21 03:59:15;;;;;;;4.40;3.88;;;29.00;51.10;;;;;;5070453;28;45301;-73
2023/08/21 04:01:42;;;;;;;5.13;4.63;;;29.00;51.20;;;;;;5069431;28;46669;-74
2023/08/21 04:04:09;;;;;;;4.28;3.88;;;29.00;51.20;;;;;;5069392;28;45249;-74
2023/08/21 04:06:36;;;;;;;3.85;3.55;;;29.00;51.20;;;;;;5069551;28;45456;-74
2023/08/21 04:09:05;;;;;;;4.07;3.70;;;29.00;51.20;;;;;;5069754;28;45454;-74
2023/08/21 04:11:32;;;;;;;4.03;3.72;;;29.00;51.20;;;;;;5069251;28;46928;-74
2023/08/21 04:13:59;;;;;;;3.90;3.58;;;29.00;51.20;;;;;;5068674;28;45333;-74
2023/08/21 04:16:27;;;;;;;4.20;3.80;;;29.00;51.20;;;;;;5069079;28;45351;-74
2023/08/21 04:18:54;;;;;;;5.43;4.25;;;28.90;51.20;;;;;;5069534;28;45306;-74
2023/08/21 04:21:21;;;;;;;4.18;3.78;;;28.90;51.10;;;;;;5069128;28;46395;-73
2023/08/21 04:23:48;;;;;;;4.55;4.15;;;28.90;51.30;;;;;;5068947;28;45279;-74
2023/08/21 04:26:15;;;;;;;4.15;3.78;;;28.90;51.40;;;;;;5069323;28;45333;-74
2023/08/21 04:28:41;;;;;;;4.60;4.20;;;28.90;51.30;;;;;;5069467;28;45425;-75
2023/08/21 04:31:08;;;;;;;4.50;4.05;;;28.90;51.30;;;;;;5068943;28;45465;-75
2023/08/21 04:33:37;;;;;;;4.30;3.90;;;28.90;51.30;;;;;;5069110;28;45309;-75
2023/08/21 04:36:04;;;;;;;3.88;3.58;;;28.80;51.20;;;;;;5069169;28;45246;-75
2023/08/21 04:38:31;;;;;;;3.75;3.45;;;28.80;51.30;;;;;;5069423;28;45354;-75
2023/08/21 04:41:01;;;;;;;4.80;4.10;;;28.80;51.30;;;;;;5068709;28;45353;-74
2023/08/21 04:43:28;;;;;;;3.83;3.35;;;28.80;51.30;;;;;;5068402;28;45375;-74
2023/08/21 04:45:55;;;;;;;4.63;4.22;;;28.80;51.30;;;;;;5068891;28;45285;-74
2023/08/21 04:48:21;;;;;;;4.18;3.60;;;28.80;51.30;;;;;;5069160;28;45397;-75
2023/08/21 04:50:50;;;;;;;3.75;3.45;;;28.80;51.80;;;;;;5068878;28;46344;-74
2023/08/21 04:53:16;;;;;;;3.80;3.50;;;28.80;51.30;;;;;;5068347;28;45364;-74
2023/08/21 04:55:43;;;;;;;4.30;3.90;;;28.80;51.30;;;;;;5068882;28;45155;-74
2023/08/21 04:58:10;;;;;;;4.40;4.00;;;28.80;51.20;;;;;;5069016;28;45181;-74
2023/08/21 05:00:37;;;;;;;5.20;4.18;;;28.70;51.20;;;;;;5067323;28;46653;-75
2023/08/21 05:03:04;;;;;;;5.22;3.83;;;28.70;51.20;;;;;;5068306;28;45343;-74
2023/08/21 05:05:31;;;;;;;4.20;3.90;;;28.70;51.20;;;;;;5068537;28;45361;-74
2023/08/21 05:07:59;;;;;;;5.43;3.42;;;28.70;51.20;;;;;;5066484;28;45305;-74
2023/08/21 05:10:26;;;;;;;4.10;3.70;;;28.70;51.80;;;;;;5068728;28;45255;-74
2023/08/21 05:12:53;;;;;;;3.80;3.50;;;28.70;51.20;;;;;;5068387;28;45440;-74
2023/08/21 05:15:20;;;;;;;4.30;3.90;;;28.70;51.10;;;;;;5068398;28;45353;-74
2023/08/21 05:17:47;;;;;;;3.67;3.38;;;28.70;51.00;;;;;;5068772;28;45221;-74
2023/08/21 05:20:14;;;;;;;4.35;3.95;;;28.70;51.10;;;;;;5068069;28;45444;-74
2023/08/21 05:22:41;;;;;;;4.95;3.85;;;28.70;51.00;;;;;;5068426;28;45327;-74
2023/08/21 05:25:10;;;;;;;3.80;3.45;;;28.70;51.00;;;;;;5069193;28;45392;-74
2023/08/21 05:27:37;;;;;;;3.30;3.10;;;28.70;51.00;;;;;;5069292;28;45269;-76
2023/08/21 05:30:05;;;;;;;3.78;3.47;;;28.70;51.00;;;;;;5068570;28;46718;-74
2023/08/21 05:32:32;;;;;;;4.07;3.70;;;28.70;50.90;;;;;;5068747;28;45381;-75
2023/08/21 05:34:58;;;;;;;4.70;3.83;;;28.70;51.00;;;;;;5068819;28;45441;-74
2023/08/21 05:37:26;;;;;;;4.10;3.38;;;28.70;51.00;;;;;;5068939;28;45359;-74
2023/08/21 05:39:53;;;;;;;3.95;3.65;;;28.70;50.90;;;;;;5068505;28;45395;-74
2023/08/21 05:42:22;;;;;;;4.15;3.75;;;28.70;50.90;;;;;;5068770;28;45194;-74
2023/08/21 05:44:49;;;;;;;3.97;3.67;;;28.60;50.80;;;;;;5069620;28;45310;-72
2023/08/21 05:47:15;;;;;;;4.00;3.70;;;28.60;50.80;;;;;;5067727;28;45419;-74
2023/08/21 05:49:42;;;;;;;3.75;3.40;;;28.70;50.90;;;;;;5069183;28;45378;-75
2023/08/21 05:52:10;;;;;;;4.97;3.90;;;28.60;50.80;;;;;;5069207;28;45413;-75
2023/08/21 05:54:37;;;;;;;4.13;3.75;;;28.60;51.40;;;;;;5068962;28;45381;-75
2023/08/21 05:57:04;;;;;;;3.95;3.55;;;28.60;50.80;;;;;;5068929;28;45208;-74
2023/08/21 05:59:33;;;;;;;3.55;3.35;;;28.60;50.80;;;;;;5068429;28;46276;-75
2023/08/21 06:02:00;;;;;;;3.92;3.63;;;28.60;50.80;;;;;;5068590;28;45154;-74
2023/08/21 06:04:27;;;;;;;4.28;3.88;;;28.60;50.70;;;;;;5068185;28;45317;-75
2023/08/21 06:06:53;;;;;;;3.80;3.50;;;28.60;50.80;;;;;;5068008;28;45473;-74
2023/08/21 06:09:20;;;;;;;3.80;3.50;;;28.60;50.80;;;;;;5067617;28;45384;-74
2023/08/21 06:11:47;;;;;;;3.97;3.67;;;28.60;50.70;;;;;;5067890;28;45237;-74
2023/08/21 06:14:14;;;;;;;3.97;3.67;;;28.60;50.80;;;;;;5067670;28;45250;-75
2023/08/21 06:16:43;;;;;;;3.97;3.58;;;28.60;50.70;;;;;;5068118;28;45281;-74
2023/08/21 06:19:10;;;;;;;3.70;3.40;;;28.60;50.70;;;;;;5067488;28;45587;-74
2023/08/21 06:21:37;;;;;;;4.45;3.90;;;28.60;50.70;;;;;;5067634;28;45371;-75
2023/08/21 06:24:04;;;;;;;3.63;3.33;;;28.60;50.70;;;;;;5067287;28;45306;-74
2023/08/21 06:26:31;;;;;;;4.00;3.45;;;28.60;50.70;;;;;;5067406;28;45460;-75
2023/08/21 06:28:58;;;;;;;4.68;4.25;;;28.60;50.70;;;;;;5067358;28;46509;-75
2023/08/21 06:31:25;;;;;;;3.80;3.50;;;28.60;50.70;;;;;;5067291;28;45333;-74
2023/08/21 06:33:53;;;;;;;4.15;3.75;;;28.60;50.70;;;;;;5066763;28;45326;-74
2023/08/21 06:36:20;;;;;;;3.80;3.50;;;28.60;50.70;;;;;;5067775;28;45112;-74
2023/08/21 06:38:47;;;;;;;4.93;3.80;;;28.60;50.70;;;;;;5067450;28;48704;-75
2023/08/21 06:41:14;;;;;;;4.80;3.63;;;28.60;50.70;;;;;;5066814;28;45388;-74
2023/08/21 06:43:41;;;;;;;4.30;3.90;;;28.70;50.70;;;;;;5067203;28;45290;-75
2023/08/21 06:46:08;;;;;;;3.80;3.50;;;28.70;50.70;;;;;;5067304;28;45571;-74
2023/08/21 06:48:36;;;;;;;4.57;3.40;;;28.70;50.70;;;;;;5066953;28;46395;-74
2023/08/21 06:51:04;;;;;;;4.25;3.85;;;28.70;50.60;;;;;;5066965;28;45273;-75
2023/08/21 06:53:31;;;;;;;4.30;3.90;;;28.70;50.60;;;;;;5066820;28;45458;-74
2023/08/21 06:55:58;;;;;;;4.03;3.63;;;28.70;50.60;;;;;;5067085;28;45268;-74
2023/08/21 06:58:25;;;;;;;3.83;3.53;;;28.70;50.60;;;;;;5066907;28;46455;-74
2023/08/21 07:00:51;;;;;;;5.25;4.07;;;28.70;50.50;;;;;;5066954;28;45262;-74
2023/08/21 07:03:18;;;;;;;5.50;3.92;;;28.70;50.60;;;;;;5066707;28;45450;-75
2023/08/21 07:05:48;;;;;;;3.75;3.45;;;28.80;50.60;;;;;;5066834;28;45310;-74
2023/08/21 07:08:16;;;;;;;4.25;3.75;;;28.80;50.60;;;;;;5066548;28;45297;-75
2023/08/21 07:10:43;;;;;;;3.80;3.50;;;28.80;50.60;;;;;;5066722;28;45370;-75
2023/08/21 07:13:10;;;;;;;3.92;3.53;;;28.80;50.60;;;;;;5066742;28;45462;-75
2023/08/21 07:15:36;;;;;;;5.38;3.90;;;28.80;50.60;;;;;;5066777;28;45427;-74
2023/08/21 07:18:04;;;;;;;5.07;3.80;;;28.80;50.60;;;;;;5065247;28;46291;-72
2023/08/21 07:20:30;;;;;;;4.45;4.05;;;28.80;50.60;;;;;;5065822;28;45163;-75
2023/08/21 07:22:57;;;;;;;5.60;4.88;;;28.80;51.80;;;;;;5066601;28;45155;-74
2023/08/21 07:25:25;;;;;;;9.77;5.57;;;28.80;54.40;;;;;;5066847;28;45302;-74
2023/08/21 07:27:53;;;;;;;6.75;5.57;;;28.80;56.60;;;;;;5066213;28;46369;-73
2023/08/21 07:30:19;;;;;;;6.95;5.88;;;28.70;57.10;;;;;;5066552;28;45249;-73
2023/08/21 07:32:53;;;;;;;7.38;5.15;;;28.70;57.70;;;;;;5066484;28;45128;-74
2023/08/21 07:35:20;;;;;;;8.38;5.47;;;28.70;57.90;;;;;;5066473;28;45488;-74
2023/08/21 07:37:47;;;;;;;11.07;6.15;;;28.60;58.00;;;;;;5066616;28;45481;-74
2023/08/21 07:40:14;;;;;;;8.75;6.07;;;28.70;58.10;;;;;;5066831;28;45380;-74
2023/08/21 07:42:42;;;;;;;9.25;5.55;;;28.70;58.00;;;;;;5066679;28;45316;-75
2023/08/21 07:45:10;;;;;;;6.22;5.50;;;28.60;58.10;;;;;;5066758;28;45562;-74
2023/08/21 07:47:37;;;;;;;6.93;5.70;;;28.70;58.00;;;;;;5066280;28;45582;-74
2023/08/21 07:50:04;;;;;;;8.23;5.55;;;28.70;58.30;;;;;;5066644;28;45316;-73
2023/08/21 07:52:31;;;;;;;6.03;5.38;;;28.70;58.30;;;;;;5066536;28;45396;-74
2023/08/21 07:54:59;;;;;;;8.50;5.50;;;28.70;58.30;;;;;;5066714;28;45437;-74
2023/08/21 07:57:25;;;;;;;6.53;5.53;;;28.70;58.50;;;;;;5065931;28;46312;-74
2023/08/21 07:59:54;;;;;;;9.88;6.05;;;28.70;58.60;;;;;;5065924;28;45198;-72
2023/08/21 08:02:20;;;;;;;6.75;6.03;;;28.70;58.80;;;;;;5046073;28;45269;-74
2023/08/21 08:04:47;;;;;;;6.35;5.45;;;28.70;58.80;;;;;;5045778;28;45406;-74
2023/08/21 08:07:14;;;;;;;8.98;5.95;;;28.70;59.10;;;;;;5045077;28;45378;-73
2023/08/21 08:09:41;;;;;;;7.05;5.22;;;28.70;58.90;;;;;;5046385;28;45242;-75
2023/08/21 08:12:08;;;;;;;6.55;5.35;;;28.80;58.80;;;;;;5045689;28;45288;-74
2023/08/21 08:14:36;;;;;;;6.68;5.38;;;28.70;59.10;;;;;;5045868;28;45349;-74
2023/08/21 08:17:04;;;;;;;7.10;5.50;;;28.80;58.60;;;;;;5045602;28;45467;-75
2023/08/21 08:19:31;;;;;;;6.97;5.82;;;28.80;58.60;;;;;;5045464;28;45282;-73
2023/08/21 08:21:58;;;;;;;7.53;5.80;;;28.90;58.40;;;;;;5045199;28;45302;-73
2023/08/21 08:24:25;;;;;;;7.93;5.90;;;28.90;58.20;;;;;;5063505;28;45441;-74
2023/08/21 08:26:51;;;;;;;11.27;6.05;;;28.90;58.20;;;;;;5065511;28;45544;-74
2023/08/21 08:29:18;;;;;;;6.90;5.55;;;29.00;58.10;;;;;;5065718;28;45464;-73
2023/08/21 08:31:45;;;;;;;7.95;5.85;;;29.00;58.30;;;;;;5068229;28;45461;-73
2023/08/21 08:34:13;;;;;;;6.13;5.53;;;29.00;58.60;;;;;;5067909;28;45397;-72
2023/08/21 08:36:41;;;;;;;8.30;6.35;;;29.00;58.30;;;;;;5068734;28;45381;-73
2023/08/21 08:39:08;;;;;;;8.98;5.75;;;29.10;58.60;;;;;;5068347;28;45308;-73
2023/08/21 08:41:49;;;;;;;8.65;5.78;;;29.10;58.20;;;;;;5067181;28;45349;-73
2023/08/21 08:44:16;;;;;;;9.05;6.35;;;29.20;58.50;;;;;;5049009;28;45413;-73
2023/08/21 08:46:42;;;;;;;12.27;6.15;;;29.20;58.40;;;;;;5048471;28;45398;-73
2023/08/21 08:49:09;;;;;;;7.43;5.65;;;29.20;57.80;;;;;;5057591;28;45243;-74
2023/08/21 08:51:37;;;;;;;7.40;5.82;;;29.30;58.00;;;;;;5053876;28;45278;-71
2023/08/21 08:54:04;;;;;;;6.47;5.85;;;29.30;57.90;;;;;;5068720;28;45376;-73
2023/08/21 08:56:31;;;;;;;6.75;5.85;;;29.40;57.70;;;;;;5068183;28;45335;-73
2023/08/21 08:58:58;;;;;;;6.60;5.68;;;29.40;57.40;;;;;;5068579;28;45449;-74
2023/08/21 09:01:25;;;;;;;6.05;5.45;;;29.50;57.80;;;;;;5068696;28;45317;-73
2023/08/21 09:03:52;;;;;;;7.72;5.95;;;29.50;57.80;;;;;;5067395;28;45618;-73
2023/08/21 09:06:18;;;;;;;8.38;6.28;;;29.50;57.70;;;;;;5063911;28;46297;-73
2023/08/21 09:08:55;;;;;;;7.65;6.10;;;29.50;57.70;;;;;;5068446;28;45346;-73
2023/08/21 09:11:22;;;;;;;8.63;6.00;;;29.50;57.20;;;;;;5067412;28;45456;-73
2023/08/21 09:13:50;;;;;;;7.63;5.78;;;29.50;57.70;;;;;;5067482;28;45318;-73
2023/08/21 09:16:17;;;;;;;6.50;5.80;;;29.60;57.80;;;;;;5068122;28;45331;-73
2023/08/21 09:18:47;;;;;;;8.63;6.30;;;29.60;57.60;;;;;;5068461;28;45315;-73
2023/08/21 09:21:17;;;;;;;8.18;6.07;;;29.60;57.70;;;;;;5068569;28;45330;-72
2023/08/21 09:23:44;;;;;;;8.50;6.32;;;29.60;57.70;;;;;;5067895;28;45458;-73
2023/08/21 09:26:12;;;;;;;8.70;5.93;;;29.60;57.50;;;;;;5068069;28;46303;-73
2023/08/21 09:28:39;;;;;;;10.80;5.68;;;29.60;57.60;;;;;;5068145;28;45290;-73
2023/08/21 09:31:06;;;;;;;8.30;6.18;;;29.70;58.10;;;;;;5068362;28;45272;-74
2023/08/21 09:33:32;;;;;;;6.13;5.47;;;29.80;57.30;;;;;;5068574;28;45354;-73
2023/08/21 09:35:59;;;;;;;6.55;5.60;;;29.90;57.40;;;;;;5067970;28;46378;-73
2023/08/21 09:38:27;;;;;;;6.50;5.82;;;29.90;57.00;;;;;;5067988;28;45375;-73
2023/08/21 09:40:55;;;;;;;6.28;5.68;;;29.90;56.70;;;;;;5067107;28;45308;-73
2023/08/21 09:43:23;;;;;;;7.72;5.80;;;30.00;56.80;;;;;;5067044;28;45326;-73
2023/08/21 09:45:52;;;;;;;7.05;5.90;;;30.00;56.80;;;;;;5067645;28;45522;-73
2023/08/21 09:48:19;;;;;;;7.63;6.07;;;30.10;56.60;;;;;;5068121;28;45323;-72
2023/08/21 09:50:46;;;;;;;7.43;6.15;;;30.20;56.80;;;;;;5068261;28;45400;-73
2023/08/21 09:53:13;;;;;;;6.50;5.90;;;30.20;56.80;;;;;;5067883;28;45242;-73
2023/08/21 09:55:40;;;;;;;7.60;6.80;;;30.20;56.90;;;;;;5067632;28;45302;-73
2023/08/21 09:58:07;;;;;;;9.95;7.20;;;30.20;56.90;;;;;;5067679;28;45302;-73
2023/08/21 10:00:36;;;;;;;7.75;6.47;;;30.30;56.90;;;;;;5068135;28;45487;-73
2023/08/21 10:03:05;;;;;;;6.90;6.03;;;30.30;57.00;;;;;;5066239;28;45535;-73
2023/08/21 10:05:32;;;;;;;6.78;6.07;;;30.30;56.80;;;;;;5067131;28;45300;-70
2023/08/21 10:08:01;;;;;;;12.68;6.60;;;30.40;56.60;;;;;;5067687;28;45288;-73
2023/08/21 10:10:29;;;;;;;9.05;6.20;;;30.50;56.50;;;;;;5067425;28;45374;-71
2023/08/21 10:12:56;;;;;;;7.70;6.18;;;30.60;56.60;;;;;;5067256;28;45356;-73
2023/08/21 10:15:23;;;;;;;7.72;6.30;;;30.50;56.10;;;;;;5067292;28;46442;-73
2023/08/21 10:17:51;;;;;;;7.05;5.97;;;30.60;56.00;;;;;;5067391;28;45293;-73
2023/08/21 10:20:22;;;;;;;7.18;6.15;;;30.60;55.80;;;;;;5067389;28;45333;-73
2023/08/21 10:22:49;;;;;;;8.40;5.93;;;30.70;55.50;;;;;;5067565;28;45483;-73
2023/08/21 10:25:17;;;;;;;8.38;5.85;;;30.70;55.20;;;;;;5059220;28;46364;-73
2023/08/21 10:27:44;;;;;;;8.07;6.35;;;30.70;55.10;;;;;;5067265;28;45292;-73
2023/08/21 10:30:15;;;;;;;6.55;5.68;;;30.80;55.10;;;;;;5065771;28;45392;-73
2023/08/21 10:32:48;;;;;;;6.53;5.93;;;30.80;54.90;;;;;;5061911;28;45524;-73
2023/08/21 10:35:18;;;;;;;6.35;5.72;;;30.90;54.60;;;;;;5066766;28;47555;-73
2023/08/21 10:38:11;;;;;;;7.32;5.43;;;30.90;54.40;;;;;;5067230;28;45263;-72
2023/08/21 10:40:38;;;;;;;5.95;5.20;;;30.90;54.30;;;;;;5067333;28;45320;-73
2023/08/21 10:43:05;;;;;;;6.75;5.80;;;31.00;54.30;;;;;;5067036;28;45357;-73
2023/08/21 10:45:32;;;;;;;6.25;5.65;;;31.00;54.10;;;;;;5065897;28;45480;-73
2023/08/21 10:47:58;;;;;;;6.50;5.90;;;31.10;54.10;;;;;;5048529;28;45390;-72
2023/08/21 10:50:27;;;;;;;8.07;5.80;;;31.10;54.20;;;;;;5046881;28;45362;-73
2023/08/21 10:52:54;;;;;;;6.70;5.50;;;31.10;53.90;;;;;;5046342;28;45189;-73
2023/08/21 10:55:21;;;;;;;6.10;5.57;;;31.20;53.80;;;;;;5046527;28;45362;-73
2023/08/21 10:57:48;;;;;;;6.03;5.35;;;31.30;53.70;;;;;;5055666;28;46146;-73
2023/08/21 11:00:16;;;;;;;6.22;5.60;;;31.30;54.20;;;;;;5067239;28;45343;-73
2023/08/21 11:02:44;;;;;;;7.78;5.78;;;31.40;53.70;;;;;;5067034;28;45309;-74
2023/08/21 11:05:11;;;;;;;5.80;5.22;;;31.50;53.50;;;;;;5066646;28;46678;-74
2023/08/21 11:07:40;;;;;;;6.45;5.70;;;31.50;53.30;;;;;;5066728;28;45348;-73
2023/08/21 11:10:08;;;;;;;6.65;5.07;;;31.60;53.20;;;;;;5066986;28;45341;-73
2023/08/21 11:12:35;;;;;;;6.05;5.45;;;31.70;53.00;;;;;;5066332;28;45244;-73
2023/08/21 11:15:02;;;;;;;6.82;5.68;;;31.80;52.90;;;;;;5066342;28;45317;-74
2023/08/21 11:17:29;;;;;;;8.77;5.32;;;31.80;52.10;;;;;;5066644;28;45460;-73
2023/08/21 11:19:56;;;;;;;7.03;5.32;;;31.90;51.90;;;;;;5066719;28;45360;-73
2023/08/21 11:22:26;;;;;;;5.97;5.03;;;31.90;51.50;;;;;;5066901;28;45389;-73
2023/08/21 11:24:55;;;;;;;6.32;5.50;;;31.90;51.20;;;;;;5065876;28;45527;-73
2023/08/21 11:27:22;;;;;;;6.07;5.10;;;32.00;51.10;;;;;;5066639;28;45284;-73
2023/08/21 11:29:50;;;;;;;6.55;5.18;;;32.10;50.90;;;;;;5066573;28;45189;-73
2023/08/21 11:32:18;;;;;;;8.13;4.90;;;32.20;50.40;;;;;;5066572;28;45567;-72
2023/08/21 11:34:50;;;;;;;6.25;5.13;;;32.30;50.30;;;;;;5066233;28;46704;-73
2023/08/21 11:37:17;;;;;;;8.48;5.05;;;32.40;50.20;;;;;;5066183;28;45570;-73
2023/08/21 11:39:45;;;;;;;7.53;4.80;;;32.40;50.10;;;;;;5066346;28;45314;-73
2023/08/21 11:42:14;;;;;;;5.50;5.00;;;32.50;50.30;;;;;;5066587;28;45329;-73
2023/08/21 11:44:42;;;;;;;9.40;5.70;;;32.60;49.60;;;;;;5065711;28;46406;-74
2023/08/21 11:47:08;;;;;;;6.68;5.13;;;32.70;49.70;;;;;;5064527;28;45330;-73
2023/08/21 11:49:37;;;;;;;5.72;5.18;;;32.80;49.30;;;;;;5059639;28;45514;-73
2023/08/21 11:52:05;;;;;;;5.85;5.28;;;32.80;49.20;;;;;;5065962;28;45405;-73
2023/08/21 11:54:35;;;;;;;7.22;5.68;;;32.80;49.20;;;;;;5065830;28;45336;-74
2023/08/21 11:57:06;;;;;;;6.22;5.13;;;32.90;49.30;;;;;;5059311;28;45364;-73
2023/08/21 11:59:34;;;;;;;5.50;4.70;;;33.00;48.90;;;;;;5063013;28;45377;-74
2023/08/21 12:02:01;;;;;;;6.18;5.53;;;33.20;48.70;;;;;;5066223;28;45377;-74
2023/08/21 12:04:28;;;;;;;7.30;5.20;;;33.20;48.50;;;;;;5066284;28;45559;-73
2023/08/21 12:06:55;;;;;;;6.93;5.50;;;33.20;48.30;;;;;;5065799;28;45433;-72
2023/08/21 12:09:22;;;;;;;7.40;5.72;;;33.30;48.20;;;;;;5069436;28;44748;-73
2023/08/21 12:11:49;;;;;;;6.43;5.20;;;33.30;47.90;;;;;;5068828;28;45321;-72
2023/08/21 12:14:16;;;;;;;7.90;5.28;;;33.40;47.80;;;;;;5068905;28;45552;-73
2023/08/21 12:16:45;;;;;;;5.45;4.95;;;33.40;47.30;;;;;;5068633;28;45250;-74
2023/08/21 12:19:12;;;;;;;9.23;4.80;;;33.50;47.10;;;;;;5068806;28;45325;-74
2023/08/21 12:21:39;;;;;;;8.23;4.85;;;33.60;47.10;;;;;;5069347;28;45475;-74
2023/08/21 12:24:06;;;;;;;5.85;4.72;;;33.70;47.10;;;;;;5068932;28;45535;-75
2023/08/21 12:26:33;;;;;;;6.70;5.47;;;33.80;47.00;;;;;;5067038;28;45484;-74
2023/08/21 12:29:02;;;;;;;6.68;5.20;;;33.80;46.60;;;;;;5068279;28;45231;-74
2023/08/21 12:31:29;;;;;;;7.38;5.18;;;33.90;46.80;;;;;;5069262;28;45365;-74
2023/08/21 12:33:57;;;;;;;6.70;4.90;;;34.00;46.70;;;;;;5066692;28;46296;-74
2023/08/21 12:36:24;;;;;;;6.70;5.07;;;34.00;46.30;;;;;;5068055;28;45259;-74
2023/08/21 12:38:51;;;;;;;7.03;5.20;;;34.10;46.10;;;;;;5067794;28;45386;-74
2023/08/21 12:41:17;;;;;;;5.30;4.75;;;34.20;46.10;;;;;;5069415;28;45342;-74
2023/08/21 12:43:44;;;;;;;5.40;4.90;;;34.20;46.20;;;;;;5067646;28;45566;-74
2023/08/21 12:46:11;;;;;;;7.38;5.13;;;34.20;45.70;;;;;;5048663;28;45437;-74